Time;durP1;ratioP1;P1;durP2;ratioP2;P2;SDS_P1;SDS_P2;PMS_P1;PMS_P2;Temp;Humidity;BMP_temperature;BMP_pressure;BME280_temperature;BME280_humidity;BME280_pressure;Samples;Min_cycle;Max_cycle;Signal;HPM_P1;HPM_P2
2022/02/28 00:00:52;;;;;;;13.30;7.38;;;;;;;-4.62;79.52;98714.63;5037557;28;20049;-63
2022/02/28 00:03:19;;;;;;;10.30;5.57;;;;;;;-4.76;79.68;98714.88;5053434;28;20041;-62
2022/02/28 00:05:46;;;;;;;13.23;7.20;;;;;;;-4.89;80.23;98709.69;5065119;28;20056;-62
2022/02/28 00:08:13;;;;;;;11.63;6.15;;;;;;;-4.90;80.58;98711.47;5044791;28;20041;-63
2022/02/28 00:10:40;;;;;;;12.38;6.97;;;;;;;-4.97;80.53;98712.94;5034847;28;20091;-62
2022/02/28 00:13:06;;;;;;;14.82;6.60;;;;;;;-4.92;80.62;98705.50;5033592;28;20045;-62
2022/02/28 00:15:33;;;;;;;11.88;6.43;;;;;;;-4.76;81.26;98714.88;5033194;28;20041;-62
2022/02/28 00:17:59;;;;;;;11.27;6.00;;;;;;;-4.58;80.20;98710.75;5046113;28;20041;-62
2022/02/28 00:20:26;;;;;;;13.55;6.78;;;;;;;-4.58;78.31;98712.56;5046441;28;20041;-62
2022/02/28 00:22:53;;;;;;;11.63;6.03;;;;;;;-4.80;78.99;98713.44;5031748;28;20046;-62
2022/02/28 00:25:19;;;;;;;9.07;5.78;;;;;;;-4.99;80.82;98705.13;5028047;28;20045;-62
2022/02/28 00:27:46;;;;;;;9.48;5.60;;;;;;;-5.09;80.84;98707.63;5042631;28;21571;-62
2022/02/28 00:30:13;;;;;;;12.68;7.28;;;;;;;-5.09;81.27;98709.44;5046035;28;20048;-62
2022/02/28 00:32:40;;;;;;;14.23;7.03;;;;;;;-5.24;80.72;98707.03;5041941;28;20037;-62
2022/02/28 00:35:08;;;;;;;10.85;6.05;;;;;;;-5.20;80.63;98699.69;5026554;28;20041;-63
2022/02/28 00:37:36;;;;;;;15.70;6.85;;;;;;;-5.13;81.40;98698.28;5041299;28;20040;-63
2022/02/28 00:40:05;;;;;;;14.63;6.80;;;;;;;-5.35;80.64;98699.91;5034411;28;20079;-63
2022/02/28 00:42:32;;;;;;;14.20;7.47;;;;;;;-5.31;81.66;98699.69;5031331;28;20042;-63
2022/02/28 00:44:59;;;;;;;13.93;6.88;;;;;;;-5.32;81.70;98696.19;5045849;28;20046;-63
2022/02/28 00:47:26;;;;;;;12.52;7.38;;;;;;;-5.23;82.17;98694.66;5043419;28;20037;-62
2022/02/28 00:49:52;;;;;;;12.52;6.28;;;;;;;-5.07;82.05;98696.09;5042578;28;20045;-62
2022/02/28 00:52:19;;;;;;;13.18;6.55;;;;;;;-4.82;81.04;98695.06;5033483;28;20048;-61
2022/02/28 00:54:45;;;;;;;13.05;6.30;;;;;;;-4.65;79.62;98696.34;5047427;28;20507;-63
2022/02/28 00:57:12;;;;;;;11.88;6.40;;;;;;;-4.65;79.62;98693.69;5046240;28;20055;-62
2022/02/28 00:59:41;;;;;;;11.77;5.78;;;;;;;-4.56;79.58;98702.72;5044528;28;20041;-62
2022/02/28 01:02:08;;;;;;;14.60;7.13;;;;;;;-4.59;79.28;98701.16;5046404;28;20048;-63
2022/02/28 01:04:35;;;;;;;11.85;6.60;;;;;;;-4.46;79.78;98692.25;5042659;28;20048;-61
2022/02/28 01:07:01;;;;;;;17.00;6.00;;;;;;;-4.81;79.51;98690.59;5045945;28;20523;-61
2022/02/28 01:09:28;;;;;;;12.15;6.80;;;;;;;-4.92;80.16;98697.56;5029833;28;20060;-63
2022/02/28 01:11:54;;;;;;;16.20;6.93;;;;;;;-4.94;79.80;98694.19;5033012;28;20485;-62
2022/02/28 01:14:21;;;;;;;13.35;6.90;;;;;;;-4.93;79.12;98695.91;5039755;28;20064;-62
2022/02/28 01:16:50;;;;;;;18.33;6.55;;;;;;;-5.38;81.39;98704.59;5025015;28;20045;-63
2022/02/28 01:19:16;;;;;;;11.88;6.30;;;;;;;-5.49;81.41;98702.78;5029679;28;20049;-63
2022/02/28 01:21:43;;;;;;;11.30;5.82;;;;;;;-5.54;82.16;98699.63;5032955;28;20041;-62
2022/02/28 01:24:09;;;;;;;11.88;6.88;;;;;;;-5.54;81.87;98694.34;5034303;28;20045;-62
2022/02/28 01:26:36;;;;;;;12.68;6.18;;;;;;;-5.41;81.96;98700.41;5045202;28;20634;-63
2022/02/28 01:29:03;;;;;;;11.23;5.68;;;;;;;-5.31;81.49;98687.31;5042954;28;20459;-63
2022/02/28 01:31:30;;;;;;;11.80;6.68;;;;;;;-5.30;81.17;98686.38;5030993;28;20040;-63
2022/02/28 01:33:56;;;;;;;11.45;5.75;;;;;;;-5.33;81.17;98683.97;5044860;28;20045;-63
2022/02/28 01:36:23;;;;;;;12.88;7.05;;;;;;;-5.33;81.62;98686.59;5040678;28;20543;-62
2022/02/28 01:38:49;;;;;;;12.40;6.60;;;;;;;-5.36;81.48;98685.06;5037560;28;20029;-62
2022/02/28 01:41:16;;;;;;;16.67;7.65;;;;;;;-5.35;81.31;98678.81;5030198;28;20044;-63
2022/02/28 01:43:43;;;;;;;12.95;6.22;;;;;;;-5.25;81.33;98678.09;5033123;28;20172;-62
2022/02/28 01:46:10;;;;;;;13.40;7.00;;;;;;;-5.22;80.38;98686.63;5026254;28;20088;-61
2022/02/28 01:48:36;;;;;;;14.75;6.45;;;;;;;-5.28;81.06;98679.16;5024488;28;20029;-63
2022/02/28 01:51:03;;;;;;;14.10;6.80;;;;;;;-5.18;80.47;98676.66;5027875;28;20460;-63
2022/02/28 01:53:30;;;;;;;12.70;6.45;;;;;;;-5.20;80.74;98678.56;5027490;28;20037;-61
2022/02/28 01:55:59;;;;;;;14.52;6.57;;;;;;;-5.14;80.00;98677.25;5029986;28;20059;-63
2022/02/28 01:58:34;;;;;;;12.15;6.10;;;;;;;-5.06;80.21;98672.22;5043815;28;20527;-63
2022/02/28 02:01:00;;;;;;;12.68;6.47;;;;;;;-5.33;79.87;98670.75;5047867;28;20044;-63
2022/02/28 02:03:27;;;;;;;11.60;6.00;;;;;;;-5.43;80.86;98670.63;5045429;28;20051;-63
2022/02/28 02:05:54;;;;;;;14.02;7.07;;;;;;;-5.63;80.66;98670.34;5042977;28;20064;-63
2022/02/28 02:08:21;;;;;;;15.00;7.57;;;;;;;-5.48;81.59;98676.25;5033619;28;20041;-63
2022/02/28 02:10:48;;;;;;;16.77;7.10;;;;;;;-5.50;80.72;98679.97;5032903;28;20063;-63
2022/02/28 02:13:15;;;;;;;13.02;6.32;;;;;;;-5.55;81.25;98676.84;5044803;28;20037;-62
2022/02/28 02:15:42;;;;;;;14.07;6.45;;;;;;;-5.72;81.11;98676.31;5037132;28;20048;-63
2022/02/28 02:18:09;;;;;;;14.93;7.40;;;;;;;-5.82;82.61;98678.78;5031320;28;20037;-63
2022/02/28 02:20:38;;;;;;;10.40;6.75;;;;;;;-5.92;81.70;98683.94;5028422;28;20064;-62
2022/02/28 02:23:10;;;;;;;15.07;6.70;;;;;;;-6.13;82.38;98686.38;5030062;28;20052;-62
2022/02/28 02:25:38;;;;;;;16.70;6.95;;;;;;;-6.14;83.93;98680.28;5041539;28;20575;-63
2022/02/28 02:28:06;;;;;;;10.98;6.55;;;;;;;-6.04;82.94;98683.06;5031387;28;20428;-63
2022/02/28 02:30:33;;;;;;;10.70;6.00;;;;;;;-6.17;82.27;98684.94;5042349;28;20060;-63
2022/02/28 02:33:02;;;;;;;14.07;7.05;;;;;;;-6.29;83.44;98684.88;5033788;28;20461;-63
2022/02/28 02:35:29;;;;;;;13.70;6.97;;;;;;;-6.37;83.53;98683.75;5038191;28;20059;-61
2022/02/28 02:37:56;;;;;;;13.65;7.10;;;;;;;-6.28;83.57;98685.72;5037817;28;20037;-62
2022/02/28 02:40:22;;;;;;;15.23;6.70;;;;;;;-6.32;83.34;98690.38;5048939;28;20059;-60
2022/02/28 02:42:50;;;;;;;15.30;7.03;;;;;;;-6.28;84.21;98683.06;5047307;28;20053;-62
2022/02/28 02:45:16;;;;;;;15.55;6.90;;;;;;;-6.31;83.19;98684.13;5026619;28;20433;-63
2022/02/28 02:47:44;;;;;;;13.75;6.68;;;;;;;-6.34;83.44;98680.91;5033016;28;20041;-63
2022/02/28 02:50:14;;;;;;;14.07;7.30;;;;;;;-6.46;83.37;98685.25;5040216;28;20044;-62
2022/02/28 02:52:41;;;;;;;13.07;6.53;;;;;;;-6.37;84.21;98681.09;5046087;28;20465;-62
2022/02/28 02:55:09;;;;;;;15.95;7.20;;;;;;;-6.41;83.82;98678.69;5036802;28;20038;-62
2022/02/28 02:57:36;;;;;;;13.35;7.07;;;;;;;-6.40;83.89;98676.91;5032314;28;20135;-60
2022/02/28 03:00:07;;;;;;;16.45;7.43;;;;;;;-6.33;84.23;98677.31;5048055;28;20086;-63
2022/02/28 03:02:45;;;;;;;12.85;7.45;;;;;;;-6.29;83.70;98671.69;5039897;28;20148;-63
2022/02/28 03:05:12;;;;;;;15.18;7.93;;;;;;;-6.29;83.72;98671.69;5028138;28;20037;-63
2022/02/28 03:07:38;;;;;;;14.90;6.68;;;;;;;-6.33;83.63;98669.38;5045669;28;20037;-62
2022/02/28 03:10:05;;;;;;;18.92;7.88;;;;;;;-6.25;84.12;98659.13;5027325;28;20045;-62
2022/02/28 03:12:32;;;;;;;13.77;7.22;;;;;;;-6.12;83.48;98666.13;5035080;28;20123;-63
2022/02/28 03:15:00;;;;;;;12.18;6.32;;;;;;;-6.17;83.26;98662.03;5046378;28;20114;-63
2022/02/28 03:17:26;;;;;;;9.93;5.70;;;;;;;-6.22;82.91;98664.19;5029938;28;20034;-62
2022/02/28 03:19:53;;;;;;;10.43;5.57;;;;;;;-6.22;82.97;98666.81;5044196;28;20055;-62
2022/02/28 03:22:20;;;;;;;11.52;6.35;;;;;;;-6.22;82.76;98671.25;5033077;28;20065;-63
2022/02/28 03:24:46;;;;;;;12.07;6.15;;;;;;;-6.30;83.36;98669.19;5029192;28;20064;-62
2022/02/28 03:27:13;;;;;;;11.77;6.22;;;;;;;-6.38;83.51;98680.25;5028414;28;20049;-62
2022/02/28 03:29:44;;;;;;;12.88;6.88;;;;;;;-6.51;82.99;98680.31;5045382;28;20037;-63
2022/02/28 03:32:11;;;;;;;12.80;6.30;;;;;;;-6.66;83.78;98684.91;5043490;28;20531;-62
2022/02/28 03:34:38;;;;;;;12.70;6.97;;;;;;;-6.70;84.28;98688.69;5041662;28;20056;-63
2022/02/28 03:37:05;;;;;;;12.93;6.47;;;;;;;-6.73;84.90;98691.53;5041435;28;20045;-62
2022/02/28 03:39:32;;;;;;;14.13;7.20;;;;;;;-6.69;84.88;98683.31;5032798;28;20046;-62
2022/02/28 03:41:59;;;;;;;13.60;6.78;;;;;;;-6.63;84.23;98683.84;5027566;28;20125;-63
2022/02/28 03:44:26;;;;;;;12.55;6.40;;;;;;;-6.63;84.75;98678.56;5036367;28;20068;-63
2022/02/28 03:47:00;;;;;;;17.23;7.03;;;;;;;-6.60;84.38;98680.97;5045758;28;20641;-63
2022/02/28 03:49:59;;;;;;;16.38;6.65;;;;;;;-6.56;84.57;98677.19;5045380;28;20049;-63
2022/02/28 03:52:29;;;;;;;11.60;6.00;;;;;;;-6.37;84.08;98676.69;5040668;28;20037;-63
2022/02/28 03:55:22;;;;;;;10.77;5.95;;;;;;;-6.32;83.50;98665.78;5029156;28;20095;-63
2022/02/28 03:57:50;;;;;;;11.13;5.88;;;;;;;-6.34;82.56;98665.09;5030053;28;20057;-63
2022/02/28 04:00:17;;;;;;;11.63;6.43;;;;;;;-6.31;83.05;98664.84;5046927;28;20530;-63
2022/02/28 04:02:44;;;;;;;17.00;6.60;;;;;;;-6.28;83.11;98659.34;5047457;28;20056;-63
2022/02/28 04:05:12;;;;;;;18.17;7.13;;;;;;;-6.24;83.15;98659.97;5032339;28;20136;-63
2022/02/28 04:07:40;;;;;;;10.07;5.05;;;;;;;-6.26;83.03;98668.00;5041730;28;20037;-63
2022/02/28 04:10:07;;;;;;;13.32;6.03;;;;;;;-6.27;82.67;98664.50;5026797;28;20059;-63
2022/02/28 04:12:36;;;;;;;12.15;6.03;;;;;;;-6.27;82.73;98669.78;5026882;28;20041;-62
2022/02/28 04:15:04;;;;;;;13.20;5.07;;;;;;;-6.19;83.16;98666.56;5040597;28;20654;-63
2022/02/28 04:17:31;;;;;;;11.77;5.57;;;;;;;-6.00;82.48;98666.03;5044641;28;20167;-63
2022/02/28 04:20:20;;;;;;;12.32;5.93;;;;;;;-5.93;82.14;98662.94;5044436;28;20037;-63
2022/02/28 04:22:46;;;;;;;19.73;7.72;;;;;;;-6.12;82.78;98655.59;5045872;28;20053;-62
2022/02/28 04:25:13;;;;;;;11.68;5.78;;;;;;;-6.10;83.25;98654.53;5032628;28;20693;-62
2022/02/28 04:27:40;;;;;;;12.10;6.75;;;;;;;-6.14;83.31;98655.69;5045078;28;20063;-63
2022/02/28 04:30:10;;;;;;;10.90;6.30;;;;;;;-6.03;83.25;98657.53;5045281;28;20136;-62
2022/02/28 04:32:37;;;;;;;9.95;5.45;;;;;;;-5.90;81.96;98658.28;5046131;28;20092;-63
2022/02/28 04:35:07;;;;;;;11.63;5.32;;;;;;;-5.78;81.51;98655.69;5032035;28;20045;-63
2022/02/28 04:37:36;;;;;;;13.05;6.50;;;;;;;-5.68;80.71;98656.66;5037464;28;20048;-62
2022/02/28 04:40:06;;;;;;;13.93;5.97;;;;;;;-5.67;80.60;98663.63;5036685;28;20051;-63
2022/02/28 04:42:35;;;;;;;13.02;6.15;;;;;;;-5.64;81.20;98662.56;5041745;28;20048;-63
2022/02/28 04:45:02;;;;;;;16.63;6.65;;;;;;;-5.76;80.44;98666.94;5046724;28;20056;-63
2022/02/28 04:47:28;;;;;;;11.10;6.28;;;;;;;-5.80;81.51;98671.63;5041571;28;20075;-64
2022/02/28 04:50:24;;;;;;;14.02;6.15;;;;;;;-6.07;81.74;98671.91;5028991;28;20053;-63
2022/02/28 04:52:51;;;;;;;10.00;5.82;;;;;;;-6.09;81.70;98679.94;5046227;28;20523;-61
2022/02/28 04:55:22;;;;;;;12.05;6.22;;;;;;;-6.19;82.25;98671.84;5041862;28;20041;-63
2022/02/28 04:57:49;;;;;;;15.07;6.78;;;;;;;-6.50;82.55;98687.25;5030940;28;20050;-62
2022/02/28 05:00:38;;;;;;;14.27;6.82;;;;;;;-6.62;83.70;98683.72;5044403;28;20769;-63
2022/02/28 05:03:05;;;;;;;13.02;7.13;;;;;;;-6.75;84.15;98686.38;5045712;28;20037;-63
2022/02/28 05:05:33;;;;;;;14.65;7.13;;;;;;;-6.80;84.41;98685.88;5040460;28;20046;-64
2022/02/28 05:07:59;;;;;;;15.07;8.15;;;;;;;-6.88;84.49;98682.94;5057274;28;20048;-63
2022/02/28 05:10:26;;;;;;;16.30;7.93;;;;;;;-6.72;84.77;98687.94;5044192;28;20520;-63
2022/02/28 05:13:03;;;;;;;9.25;5.05;;;;;;;-6.53;84.78;98683.06;5029060;28;20052;-62
2022/02/28 05:15:30;;;;;;;12.88;6.60;;;;;;;-6.40;84.04;98682.19;5030272;28;20041;-63
2022/02/28 05:17:58;;;;;;;13.40;7.13;;;;;;;-6.50;83.68;98689.91;5024635;28;20663;-63
2022/02/28 05:20:26;;;;;;;14.23;6.57;;;;;;;-6.40;84.03;98690.09;5041774;28;20056;-63
2022/02/28 05:22:53;;;;;;;18.40;9.30;;;;;;;-6.44;82.98;98693.91;5041643;28;20099;-63
2022/02/28 05:25:20;;;;;;;12.80;6.40;;;;;;;-6.63;83.47;98694.38;5030446;28;20046;-64
2022/02/28 05:27:47;;;;;;;11.75;6.18;;;;;;;-6.70;83.75;98692.19;5032695;28;20049;-65
2022/02/28 05:30:16;;;;;;;13.25;7.05;;;;;;;-6.42;84.34;98690.19;5030729;28;20111;-65
2022/02/28 05:32:45;;;;;;;15.88;8.18;;;;;;;-6.35;84.21;98679.22;5034723;28;20045;-66
2022/02/28 05:35:21;;;;;;;21.55;8.45;;;;;;;-6.33;84.27;98685.22;5040583;28;20041;-66
2022/02/28 05:38:05;;;;;;;16.23;7.50;;;;;;;-6.37;83.74;98687.22;5042985;28;20049;-65
2022/02/28 05:40:36;;;;;;;13.82;8.68;;;;;;;-6.29;83.85;98689.31;5042180;28;20045;-66
2022/02/28 05:43:08;;;;;;;14.20;7.00;;;;;;;-6.21;83.51;98686.94;5040329;28;20178;-65
2022/02/28 05:45:36;;;;;;;13.63;7.40;;;;;;;-6.31;83.27;98688.56;5041669;28;20128;-65
2022/02/28 05:48:26;;;;;;;17.17;7.05;;;;;;;-6.37;83.87;98689.88;5034112;28;20053;-66
2022/02/28 05:50:53;;;;;;;15.82;7.57;;;;;;;-6.22;84.28;98690.56;5041234;28;20049;-65
2022/02/28 05:53:20;;;;;;;13.75;7.13;;;;;;;-6.08;83.17;98691.34;5028492;28;20665;-66
2022/02/28 05:55:46;;;;;;;14.05;7.18;;;;;;;-5.99;82.65;98695.88;5038209;28;20086;-66
2022/02/28 05:58:14;;;;;;;12.85;7.03;;;;;;;-5.97;82.61;98704.50;5037127;28;20653;-66
2022/02/28 06:00:41;;;;;;;16.73;7.10;;;;;;;-6.02;82.08;98706.66;5039815;28;20041;-67
2022/02/28 06:03:07;;;;;;;13.35;7.43;;;;;;;-6.17;81.56;98704.22;5040319;28;20445;-66
2022/02/28 06:05:34;;;;;;;11.10;6.95;;;;;;;-6.35;82.76;98719.59;5040436;28;20033;-65
2022/02/28 06:08:01;;;;;;;15.35;7.90;;;;;;;-6.61;83.67;98713.53;5035749;28;20397;-66
2022/02/28 06:10:27;;;;;;;17.55;8.45;;;;;;;-6.66;84.65;98708.59;5040695;28;20254;-67
2022/02/28 06:12:54;;;;;;;16.73;7.78;;;;;;;-6.77;84.62;98722.53;5053958;28;20090;-65
2022/02/28 06:15:27;;;;;;;14.57;7.65;;;;;;;-6.79;84.26;98720.00;5044912;28;20048;-65
2022/02/28 06:17:54;;;;;;;17.55;8.10;;;;;;;-6.79;84.76;98725.28;5050169;28;20145;-66
2022/02/28 06:20:21;;;;;;;20.85;8.75;;;;;;;-6.63;84.95;98718.09;5057700;28;20048;-66
2022/02/28 06:22:48;;;;;;;15.43;7.70;;;;;;;-6.44;84.78;98721.09;5048252;28;20061;-67
2022/02/28 06:25:15;;;;;;;14.38;7.70;;;;;;;-6.38;84.79;98716.34;5029951;28;20049;-66
2022/02/28 06:27:42;;;;;;;15.70;8.18;;;;;;;-6.20;83.99;98715.00;5037617;28;20037;-67
2022/02/28 06:30:09;;;;;;;13.63;8.07;;;;;;;-6.03;82.97;98716.38;5037817;28;20041;-67
2022/02/28 06:32:36;;;;;;;18.48;8.73;;;;;;;-5.88;82.88;98713.56;5055274;28;20063;-67
2022/02/28 06:35:04;;;;;;;17.42;7.75;;;;;;;-5.85;82.12;98715.97;5039815;28;20045;-66
2022/02/28 06:37:31;;;;;;;18.02;9.57;;;;;;;-5.79;81.99;98718.16;5039044;28;20046;-66
2022/02/28 06:39:57;;;;;;;17.55;8.50;;;;;;;-5.72;82.75;98720.34;5039885;28;20038;-67
2022/02/28 06:42:24;;;;;;;20.80;10.02;;;;;;;-5.77;81.99;98721.53;5024301;28;20046;-67
2022/02/28 06:44:50;;;;;;;20.83;9.48;;;;;;;-5.85;82.76;98721.25;5039945;28;20570;-65
2022/02/28 06:47:17;;;;;;;18.38;9.20;;;;;;;-5.87;82.89;98724.00;5040836;28;20091;-67
2022/02/28 06:49:45;;;;;;;22.85;11.32;;;;;;;-5.85;83.35;98723.91;5039036;28;20613;-67
2022/02/28 06:52:11;;;;;;;16.02;8.70;;;;;;;-5.69;82.62;98722.72;5033254;28;20547;-67
2022/02/28 06:54:38;;;;;;;16.38;7.80;;;;;;;-5.65;82.80;98726.81;5039515;28;20084;-67
2022/02/28 06:57:05;;;;;;;21.08;9.30;;;;;;;-5.52;82.12;98739.97;5024217;28;20544;-66
2022/02/28 06:59:31;;;;;;;14.55;8.48;;;;;;;-5.40;82.16;98733.75;5043292;28;20041;-64
2022/02/28 07:01:58;;;;;;;22.55;10.63;;;;;;;-5.35;81.40;98728.97;5053612;28;20044;-66
2022/02/28 07:04:43;;;;;;;18.80;8.93;;;;;;;-5.25;81.65;98725.63;5036241;28;20061;-66
2022/02/28 07:07:11;;;;;;;16.63;9.65;;;;;;;-5.17;81.13;98727.69;5043329;28;20098;-66
2022/02/28 07:09:38;;;;;;;16.10;9.68;;;;;;;-5.05;81.48;98726.72;5039216;28;20059;-66
2022/02/28 07:12:05;;;;;;;17.02;9.63;;;;;;;-4.94;80.62;98725.88;5034451;28;20057;-66
2022/02/28 07:14:31;;;;;;;15.77;8.40;;;;;;;-4.84;80.84;98726.03;5048052;28;20116;-66
2022/02/28 07:16:58;;;;;;;16.30;9.48;;;;;;;-4.75;80.35;98727.13;5043181;28;20094;-65
2022/02/28 07:19:24;;;;;;;18.20;10.00;;;;;;;-4.52;80.03;98725.31;5040472;28;20056;-67
2022/02/28 07:21:51;;;;;;;15.70;8.63;;;;;;;-4.39;79.86;98724.34;5046733;28;20107;-66
2022/02/28 07:24:22;;;;;;;15.93;9.85;;;;;;;-4.29;80.25;98725.25;5039801;28;20072;-65
2022/02/28 07:26:52;;;;;;;17.20;9.93;;;;;;;-4.11;80.09;98730.03;5039285;28;20045;-65
2022/02/28 07:29:19;;;;;;;18.58;10.57;;;;;;;-4.14;80.64;98724.97;5030200;28;20048;-65
2022/02/28 07:31:45;;;;;;;19.90;10.05;;;;;;;-4.10;78.84;98724.63;5037738;28;20052;-65
2022/02/28 07:34:12;;;;;;;18.98;8.80;;;;;;;-4.04;79.10;98731.22;5045612;28;20044;-65
2022/02/28 07:36:39;;;;;;;19.08;9.77;;;;;;;-4.01;79.72;98730.97;5058312;28;20048;-66
2022/02/28 07:39:05;;;;;;;16.23;10.43;;;;;;;-4.13;80.32;98731.97;5054662;28;20515;-65
2022/02/28 07:41:32;;;;;;;19.35;10.13;;;;;;;-4.01;82.00;98730.97;5044098;28;20044;-65
2022/02/28 07:43:58;;;;;;;21.55;9.65;;;;;;;-3.84;80.67;98734.88;5047080;28;20067;-67
2022/02/28 07:46:25;;;;;;;18.60;9.38;;;;;;;-3.77;80.54;98735.22;5058017;28;20037;-67
2022/02/28 07:48:52;;;;;;;16.58;9.48;;;;;;;-3.68;80.63;98733.63;5038245;28;20074;-66
2022/02/28 07:51:18;;;;;;;16.17;8.63;;;;;;;-3.53;80.33;98734.97;5054674;28;20049;-66
2022/02/28 07:53:45;;;;;;;16.88;8.98;;;;;;;-3.37;80.65;98735.50;5063530;28;20689;-66
2022/02/28 07:56:12;;;;;;;16.83;8.85;;;;;;;-3.23;80.88;98735.22;5040848;28;20779;-67
2022/02/28 07:58:38;;;;;;;16.60;9.25;;;;;;;-3.13;80.25;98735.28;5048135;28;20045;-65
2022/02/28 08:01:06;;;;;;;20.58;9.43;;;;;;;-2.98;80.29;98737.56;5052734;28;20546;-67
2022/02/28 08:03:32;;;;;;;18.50;9.00;;;;;;;-2.77;79.20;98741.03;5048544;28;20536;-65
2022/02/28 08:05:59;;;;;;;19.58;10.40;;;;;;;-2.67;78.41;98740.22;5052766;28;20036;-68
2022/02/28 08:08:26;;;;;;;23.13;11.32;;;;;;;-2.51;78.51;98740.59;5032466;28;20045;-65
2022/02/28 08:10:52;;;;;;;25.45;11.07;;;;;;;-2.23;76.80;98742.63;5027803;28;20045;-65
2022/02/28 08:13:19;;;;;;;22.50;11.27;;;;;;;-1.94;75.23;98741.00;5028252;28;20493;-66
2022/02/28 08:15:46;;;;;;;17.77;9.65;;;;;;;-1.43;72.50;98733.75;5039648;28;20044;-67
2022/02/28 08:18:12;;;;;;;18.00;9.25;;;;;;;-1.22;71.73;98738.91;5049362;28;20044;-66
2022/02/28 08:20:39;;;;;;;18.27;9.10;;;;;;;-1.08;70.53;98744.75;5057578;28;20092;-66
2022/02/28 08:23:07;;;;;;;17.40;9.40;;;;;;;-0.92;70.21;98746.84;5053379;28;20429;-68
2022/02/28 08:25:34;;;;;;;20.13;11.05;;;;;;;-0.75;69.35;98750.56;5064593;28;20048;-66
2022/02/28 08:28:00;;;;;;;15.07;9.07;;;;;;;-0.63;69.31;98753.06;5061751;28;20051;-66
2022/02/28 08:30:27;;;;;;;16.20;10.07;;;;;;;-0.52;69.07;98755.50;5055497;28;20055;-66
2022/02/28 08:32:54;;;;;;;14.68;8.50;;;;;;;-0.42;69.20;98753.66;5049083;28;20052;-65
2022/02/28 08:35:22;;;;;;;15.93;9.20;;;;;;;-0.30;68.88;98758.78;5047374;28;20103;-65
2022/02/28 08:37:49;;;;;;;16.70;8.82;;;;;;;-0.19;68.13;98747.94;5063381;28;20044;-67
2022/02/28 08:40:15;;;;;;;17.40;9.70;;;;;;;-0.04;67.72;98753.59;5041843;28;20049;-66
2022/02/28 08:42:42;;;;;;;14.55;8.02;;;;;;;0.04;66.99;98752.03;5050974;28;20048;-66
2022/02/28 08:45:09;;;;;;;15.63;8.57;;;;;;;0.10;66.76;98752.25;5057493;28;20045;-67
2022/02/28 08:47:36;;;;;;;20.10;9.98;;;;;;;0.22;65.96;98750.19;5060016;28;20656;-66
2022/02/28 08:50:02;;;;;;;19.27;10.00;;;;;;;0.36;65.31;98745.34;5045096;28;20043;-67
2022/02/28 08:52:31;;;;;;;17.45;9.95;;;;;;;0.47;64.97;98750.44;5063441;28;20067;-66
2022/02/28 08:55:03;;;;;;;17.67;9.60;;;;;;;0.52;64.36;98748.16;5064989;28;20071;-65
2022/02/28 08:57:30;;;;;;;;;;;;;;;0.63;64.50;98757.75;5048540;28;20059;-65
2022/02/28 08:59:56;;;;;;;19.98;9.73;;;;;;;0.80;64.74;98755.22;5044405;28;20449;-65
2022/02/28 09:02:23;;;;;;;20.92;10.43;;;;;;;0.89;64.20;98756.13;5056870;28;20047;-67
2022/02/28 09:04:49;;;;;;;17.75;9.73;;;;;;;0.98;63.75;98752.53;5065088;28;20063;-66
2022/02/28 09:07:16;;;;;;;14.73;8.80;;;;;;;1.01;62.58;98746.03;5054402;28;20132;-66
2022/02/28 09:09:43;;;;;;;19.02;8.77;;;;;;;1.01;62.61;98752.22;5065033;28;20043;-67
2022/02/28 09:12:10;;;;;;;26.63;12.23;;;;;;;1.09;62.67;98745.25;5043699;28;20049;-66
2022/02/28 09:14:36;;;;;;;22.48;11.25;;;;;;;1.13;62.84;98742.13;5043508;28;20044;-67
2022/02/28 09:17:04;;;;;;;19.35;9.13;;;;;;;1.17;61.98;98755.97;5060025;28;20131;-67
2022/02/28 09:19:30;;;;;;;16.33;9.23;;;;;;;1.22;62.20;98751.00;5054791;28;20052;-66
2022/02/28 09:21:57;;;;;;;20.13;9.77;;;;;;;1.31;61.92;98757.22;5033834;28;20102;-67
2022/02/28 09:24:24;;;;;;;16.17;9.25;;;;;;;1.39;62.15;98756.44;5053700;28;20045;-67
2022/02/28 09:26:51;;;;;;;19.65;9.73;;;;;;;1.43;61.62;98755.97;5061459;28;20049;-67
2022/02/28 09:29:17;;;;;;;26.67;11.02;;;;;;;1.47;61.60;98748.47;5044724;28;20095;-67
2022/02/28 09:31:45;;;;;;;23.25;10.57;;;;;;;1.52;61.06;98745.34;5047279;28;20071;-67
2022/02/28 09:34:11;;;;;;;18.63;8.88;;;;;;;1.55;60.94;98751.19;5045055;28;20570;-66
2022/02/28 09:36:41;;;;;;;16.10;9.02;;;;;;;1.60;61.03;98752.53;5045869;28;20041;-67
2022/02/28 09:39:07;;;;;;;17.90;10.13;;;;;;;1.64;61.61;98752.06;5046255;28;20048;-66
2022/02/28 09:41:54;;;;;;;21.10;10.95;;;;;;;1.64;61.78;98752.06;5046276;28;20159;-67
2022/02/28 09:44:40;;;;;;;16.35;9.73;;;;;;;1.69;60.73;98754.25;5045650;28;20078;-66
2022/02/28 09:47:09;;;;;;;16.88;9.57;;;;;;;1.74;60.38;98754.63;5046028;28;20052;-67
2022/02/28 09:49:55;;;;;;;21.10;8.82;;;;;;;1.78;60.07;98755.13;5034694;28;20052;-65
2022/02/28 09:52:41;;;;;;;17.58;9.10;;;;;;;1.81;60.15;98757.47;5025764;28;20085;-66
2022/02/28 09:55:26;;;;;;;23.45;10.95;;;;;;;1.89;60.28;98759.34;5025856;28;20056;-65
2022/02/28 09:58:11;;;;;;;18.23;10.77;;;;;;;1.96;59.54;98755.03;5026528;28;20056;-65
2022/02/28 10:00:48;;;;;;;18.15;9.50;;;;;;;2.03;59.54;98758.72;5029087;28;20467;-65
2022/02/28 10:03:15;;;;;;;13.75;8.63;;;;;;;2.11;59.21;98757.91;5047002;28;20422;-66
2022/02/28 10:05:42;;;;;;;21.17;10.32;;;;;;;2.16;57.96;98768.09;5048143;28;20041;-66
2022/02/28 10:08:13;;;;;;;16.77;8.75;;;;;;;2.24;57.62;98764.63;5065842;28;20040;-65
2022/02/28 10:10:44;;;;;;;15.68;8.50;;;;;;;2.31;56.99;98769.16;5065902;28;20040;-67
2022/02/28 10:13:10;;;;;;;17.90;9.25;;;;;;;2.39;56.74;98762.97;5066029;28;20048;-65
2022/02/28 10:15:37;;;;;;;19.20;9.95;;;;;;;2.40;56.63;98763.81;5051486;28;20514;-65
2022/02/28 10:18:05;;;;;;;20.77;9.68;;;;;;;2.54;56.52;98757.00;5044948;28;20048;-65
2022/02/28 10:20:38;;;;;;;16.38;9.05;;;;;;;2.59;55.91;98755.47;5035486;28;20045;-65
2022/02/28 10:23:08;;;;;;;14.80;8.38;;;;;;;2.66;55.46;98762.84;5040298;28;20052;-65
2022/02/28 10:26:01;;;;;;;15.60;7.68;;;;;;;2.73;55.17;98756.66;5030439;28;20056;-66
2022/02/28 10:29:03;;;;;;;18.95;9.38;;;;;;;2.96;54.83;98752.47;5031676;28;20052;-67
2022/02/28 10:31:51;;;;;;;17.08;8.70;;;;;;;2.94;54.32;98751.78;5039744;28;20167;-65
2022/02/28 10:35:59;;;;;;;14.15;8.27;;;;;;;3.05;53.69;98751.47;5042171;28;20106;-67
2022/02/28 10:38:16;;;;;;;14.43;7.50;;;;;;;3.23;52.86;98743.25;5037242;28;20048;-65
2022/02/28 10:40:44;;;;;;;15.73;8.07;;;;;;;3.32;52.30;98745.91;5042859;28;20045;-67
2022/02/28 10:43:26;;;;;;;17.52;8.20;;;;;;;3.34;51.54;98742.03;5036399;28;20504;-66
2022/02/28 10:45:54;;;;;;;10.43;6.75;;;;;;;3.51;51.85;98739.31;5025034;28;20042;-66
2022/02/28 10:48:22;;;;;;;15.38;8.63;;;;;;;3.58;51.52;98734.94;5039556;28;20045;-66
2022/02/28 10:50:53;;;;;;;13.02;8.07;;;;;;;3.54;51.03;98733.59;5029334;28;20041;-67
2022/02/28 10:53:22;;;;;;;16.98;8.13;;;;;;;3.60;50.23;98732.94;5032764;28;20513;-66
2022/02/28 10:55:50;;;;;;;13.02;7.50;;;;;;;3.65;50.91;98737.78;5026271;28;20541;-66
2022/02/28 10:58:24;;;;;;;15.05;8.20;;;;;;;3.80;49.88;98737.88;5028756;28;20469;-67
2022/02/28 11:00:58;;;;;;;14.68;6.90;;;;;;;3.96;50.11;98725.41;5048684;28;20041;-65
2022/02/28 11:03:48;;;;;;;20.17;9.20;;;;;;;4.00;49.63;98724.88;5048760;28;20411;-67
2022/02/28 11:06:20;;;;;;;14.25;7.63;;;;;;;4.03;48.58;98716.47;5047689;28;20040;-66
2022/02/28 11:08:47;;;;;;;;;;;;;;;4.10;47.86;98713.09;5031249;28;20052;-67
2022/02/28 11:11:15;;;;;;;14.35;8.60;;;;;;;4.23;48.06;98716.03;5036753;28;19929;-66
2022/02/28 11:13:44;;;;;;;13.18;8.25;;;;;;;4.32;47.84;98719.50;5027915;28;20049;-67
2022/02/28 11:16:15;;;;;;;12.05;7.60;;;;;;;4.31;48.03;98719.69;5043851;28;20041;-67
2022/02/28 11:18:42;;;;;;;15.50;7.40;;;;;;;4.52;47.48;98719.00;5033049;28;20052;-66
2022/02/28 11:21:12;;;;;;;11.48;6.60;;;;;;;4.74;47.09;98721.84;5026363;28;20052;-68
2022/02/28 11:23:44;;;;;;;12.80;6.53;;;;;;;4.74;46.29;98721.84;5040590;28;20059;-68
2022/02/28 11:26:12;;;;;;;13.38;7.60;;;;;;;4.75;46.11;98710.13;5040092;28;20053;-65
2022/02/28 11:28:39;;;;;;;12.77;7.65;;;;;;;4.79;46.46;98714.13;5040184;28;20056;-66
2022/02/28 11:31:14;;;;;;;11.43;6.97;;;;;;;4.75;45.32;98708.25;5035412;28;20049;-67
2022/02/28 11:34:05;;;;;;;16.00;8.65;;;;;;;4.72;45.72;98711.31;5026893;28;20103;-66
2022/02/28 11:36:52;;;;;;;15.07;7.82;;;;;;;4.86;45.31;98700.81;5039174;28;20124;-68